sensor_id;sensor_type;location;lat;lon;timestamp;pressure;altitude;pressure_sealevel;temperature;humidity
9421;BME280;4749;51.398;5.466;2023-05-29T00:01:03;101999.81;;;16.03;100.00
9421;BME280;4749;51.398;5.466;2023-05-29T00:03:30;101997.19;;;15.99;100.00
9421;BME280;4749;51.398;5.466;2023-05-29T00:06:02;101999.81;;;15.94;100.00
9421;BME280;4749;51.398;5.466;2023-05-29T00:08:29;102000.72;;;15.89;100.00
9421;BME280;4749;51.398;5.466;2023-05-29T00:10:57;101991.00;;;15.86;100.00
9421;BME280;4749;51.398;5.466;2023-05-29T00:13:24;101998.06;;;15.80;100.00
9421;BME280;4749;51.398;5.466;2023-05-29T00:15:51;102004.28;;;15.75;100.00
9421;BME280;4749;51.398;5.466;2023-05-29T00:18:19;101998.97;;;15.68;100.00
9421;BME280;4749;51.398;5.466;2023-05-29T00:20:46;101998.06;;;15.63;100.00
9421;BME280;4749;51.398;5.466;2023-05-29T00:23:13;102002.47;;;15.58;100.00
9421;BME280;4749;51.398;5.466;2023-05-29T00:25:40;102002.47;;;15.48;100.00
9421;BME280;4749;51.398;5.466;2023-05-29T00:28:09;102009.53;;;15.43;100.00
9421;BME280;4749;51.398;5.466;2023-05-29T00:30:37;102006.84;;;15.36;100.00
9421;BME280;4749;51.398;5.466;2023-05-29T00:33:04;102011.25;;;15.28;100.00
9421;BME280;4749;51.398;5.466;2023-05-29T00:35:31;102013.03;;;15.24;100.00
9421;BME280;4749;51.398;5.466;2023-05-29T00:37:59;102017.41;;;15.20;100.00
9421;BME280;4749;51.398;5.466;2023-05-29T00:40:26;102028.03;;;15.19;100.00
9421;BME280;4749;51.398;5.466;2023-05-29T00:42:53;102031.56;;;15.15;100.00
9421;BME280;4749;51.398;5.466;2023-05-29T00:45:20;102017.41;;;15.13;100.00
9421;BME280;4749;51.398;5.466;2023-05-29T00:47:47;102028.88;;;15.09;100.00
9421;BME280;4749;51.398;5.466;2023-05-29T00:50:15;102035.03;;;15.03;100.00
9421;BME280;4749;51.398;5.466;2023-05-29T00:52:44;102026.19;;;14.95;100.00
9421;BME280;4749;51.398;5.466;2023-05-29T00:55:13;102029.72;;;14.89;100.00
9421;BME280;4749;51.398;5.466;2023-05-29T00:57:41;102034.09;;;14.86;100.00
9421;BME280;4749;51.398;5.466;2023-05-29T01:00:10;102035.84;;;14.81;100.00
9421;BME280;4749;51.398;5.466;2023-05-29T01:02:42;102041.13;;;14.73;100.00
9421;BME280;4749;51.398;5.466;2023-05-29T01:05:12;102040.19;;;14.67;100.00
9421;BME280;4749;51.398;5.466;2023-05-29T01:07:41;102048.13;;;14.63;100.00
9421;BME280;4749;51.398;5.466;2023-05-29T01:10:10;102052.50;;;14.57;100.00
9421;BME280;4749;51.398;5.466;2023-05-29T01:12:52;102057.75;;;14.54;100.00
9421;BME280;4749;51.398;5.466;2023-05-29T01:16:01;102054.22;;;14.50;100.00
9421;BME280;4749;51.398;5.466;2023-05-29T01:24:32;102056.75;;;14.35;100.00
9421;BME280;4749;51.398;5.466;2023-05-29T01:27:05;102063.75;;;14.28;100.00
9421;BME280;4749;51.398;5.466;2023-05-29T01:29:34;102059.31;;;14.23;100.00
9421;BME280;4749;51.398;5.466;2023-05-29T01:32:05;102061.03;;;14.18;100.00
9421;BME280;4749;51.398;5.466;2023-05-29T01:34:33;102056.63;;;14.14;100.00
9421;BME280;4749;51.398;5.466;2023-05-29T01:37:00;102067.16;;;14.11;100.00
9421;BME280;4749;51.398;5.466;2023-05-29T01:39:27;102063.59;;;14.07;100.00
9421;BME280;4749;51.398;5.466;2023-05-29T01:41:56;102067.97;;;14.03;100.00
9421;BME280;4749;51.398;5.466;2023-05-29T01:44:23;102070.59;;;13.99;100.00
9421;BME280;4749;51.398;5.466;2023-05-29T01:46:51;102079.41;;;13.96;100.00
9421;BME280;4749;51.398;5.466;2023-05-29T01:49:19;102080.22;;;13.94;100.00
9421;BME280;4749;51.398;5.466;2023-05-29T01:51:47;102083.75;;;13.91;100.00
9421;BME280;4749;51.398;5.466;2023-05-29T01:54:15;102074.88;;;13.86;100.00
9421;BME280;4749;51.398;5.466;2023-05-29T01:56:42;102090.69;;;13.80;100.00
9421;BME280;4749;51.398;5.466;2023-05-29T01:59:10;102079.19;;;13.73;100.00
9421;BME280;4749;51.398;5.466;2023-05-29T02:01:39;102076.50;;;13.70;100.00
9421;BME280;4749;51.398;5.466;2023-05-29T02:04:07;102080.00;;;13.66;100.00
9421;BME280;4749;51.398;5.466;2023-05-29T02:06:34;102086.16;;;13.64;100.00
9421;BME280;4749;51.398;5.466;2023-05-29T02:09:01;102077.25;;;13.56;100.00
9421;BME280;4749;51.398;5.466;2023-05-29T02:11:28;102080.78;;;13.55;100.00
9421;BME280;4749;51.398;5.466;2023-05-29T02:13:55;102077.19;;;13.52;100.00
9421;BME280;4749;51.398;5.466;2023-05-29T02:16:22;102078.06;;;13.50;100.00
9421;BME280;4749;51.398;5.466;2023-05-29T02:18:50;102078.91;;;13.46;100.00
9421;BME280;4749;51.398;5.466;2023-05-29T02:21:18;102083.25;;;13.39;100.00
9421;BME280;4749;51.398;5.466;2023-05-29T02:23:45;102081.44;;;13.37;100.00
9421;BME280;4749;51.398;5.466;2023-05-29T02:26:13;102082.31;;;13.34;100.00
9421;BME280;4749;51.398;5.466;2023-05-29T02:28:42;102087.56;;;13.31;100.00
9421;BME280;4749;51.398;5.466;2023-05-29T02:31:09;102082.22;;;13.27;100.00
9421;BME280;4749;51.398;5.466;2023-05-29T02:33:37;102084.84;;;13.23;100.00
9421;BME280;4749;51.398;5.466;2023-05-29T02:36:04;102081.28;;;13.21;100.00
9421;BME280;4749;51.398;5.466;2023-05-29T02:38:31;102082.09;;;13.19;100.00
9421;BME280;4749;51.398;5.466;2023-05-29T02:40:58;102077.66;;;13.16;100.00
9421;BME280;4749;51.398;5.466;2023-05-29T02:43:25;102083.81;;;13.14;100.00
9421;BME280;4749;51.398;5.466;2023-05-29T02:45:52;102090.84;;;13.12;100.00
9421;BME280;4749;51.398;5.466;2023-05-29T02:48:19;102088.13;;;13.07;100.00
9421;BME280;4749;51.398;5.466;2023-05-29T02:50:47;102091.63;;;13.05;100.00
9421;BME280;4749;51.398;5.466;2023-05-29T02:53:14;102091.53;;;12.99;100.00
9421;BME280;4749;51.398;5.466;2023-05-29T02:55:41;102084.41;;;12.93;100.00
9421;BME280;4749;51.398;5.466;2023-05-29T02:58:09;102088.78;;;12.91;100.00
9421;BME280;4749;51.398;5.466;2023-05-29T03:00:38;102092.22;;;12.85;100.00
9421;BME280;4749;51.398;5.466;2023-05-29T03:03:05;102099.22;;;12.82;100.00
9421;BME280;4749;51.398;5.466;2023-05-29T03:05:33;102096.53;;;12.77;100.00
9421;BME280;4749;51.398;5.466;2023-05-29T03:08:00;102095.59;;;12.72;100.00
9421;BME280;4749;51.398;5.466;2023-05-29T03:10:27;102092.94;;;12.71;100.00
9421;BME280;4749;51.398;5.466;2023-05-29T03:12:54;102096.38;;;12.65;100.00
9421;BME280;4749;51.398;5.466;2023-05-29T03:15:22;102099.88;;;12.64;100.00
9421;BME280;4749;51.398;5.466;2023-05-29T03:17:49;102091.88;;;12.59;100.00
9421;BME280;4749;51.398;5.466;2023-05-29T03:20:16;102100.66;;;12.58;100.00
9421;BME280;4749;51.398;5.466;2023-05-29T03:22:44;102097.13;;;12.58;100.00
9421;BME280;4749;51.398;5.466;2023-05-29T03:25:11;102095.34;;;12.55;100.00
9421;BME280;4749;51.398;5.466;2023-05-29T03:27:38;102099.75;;;12.55;100.00
9421;BME280;4749;51.398;5.466;2023-05-29T03:30:06;102094.44;;;12.53;100.00
9421;BME280;4749;51.398;5.466;2023-05-29T03:32:33;102098.78;;;12.51;100.00
9421;BME280;4749;51.398;5.466;2023-05-29T03:35:01;102089.09;;;12.49;100.00
9421;BME280;4749;51.398;5.466;2023-05-29T03:37:29;102084.69;;;12.48;100.00
9421;BME280;4749;51.398;5.466;2023-05-29T03:39:56;102104.03;;;12.48;100.00
9421;BME280;4749;51.398;5.466;2023-05-29T03:42:23;102094.34;;;12.47;100.00
9421;BME280;4749;51.398;5.466;2023-05-29T03:44:50;102097.84;;;12.46;100.00
9421;BME280;4749;51.398;5.466;2023-05-29T03:47:17;102104.03;;;12.47;100.00
9421;BME280;4749;51.398;5.466;2023-05-29T03:49:44;102097.84;;;12.45;100.00
9421;BME280;4749;51.398;5.466;2023-05-29T03:52:12;102105.78;;;12.46;100.00
9421;BME280;4749;51.398;5.466;2023-05-29T03:54:39;102108.44;;;12.48;100.00
9421;BME280;4749;51.398;5.466;2023-05-29T03:57:06;102105.78;;;12.48;100.00
9421;BME280;4749;51.398;5.466;2023-05-29T03:59:33;102111.94;;;12.47;100.00
9421;BME280;4749;51.398;5.466;2023-05-29T04:02:00;102113.72;;;12.49;100.00
9421;BME280;4749;51.398;5.466;2023-05-29T04:04:28;102111.16;;;12.54;100.00
9421;BME280;4749;51.398;5.466;2023-05-29T04:06:55;102111.19;;;12.55;100.00
9421;BME280;4749;51.398;5.466;2023-05-29T04:09:23;102120.00;;;12.59;100.00
9421;BME280;4749;51.398;5.466;2023-05-29T04:11:50;102119.16;;;12.60;100.00
9421;BME280;4749;51.398;5.466;2023-05-29T04:14:18;102123.63;;;12.64;100.00
9421;BME280;4749;51.398;5.466;2023-05-29T04:16:46;102129.00;;;12.70;100.00
9421;BME280;4749;51.398;5.466;2023-05-29T04:19:13;102128.28;;;12.82;100.00
9421;BME280;4749;51.398;5.466;2023-05-29T04:21:41;102130.22;;;12.95;100.00
9421;BME280;4749;51.398;5.466;2023-05-29T04:24:08;102131.22;;;13.05;100.00
9421;BME280;4749;51.398;5.466;2023-05-29T04:26:35;102133.03;;;13.10;100.00
9421;BME280;4749;51.398;5.466;2023-05-29T04:29:02;102134.88;;;13.16;100.00
9421;BME280;4749;51.398;5.466;2023-05-29T04:31:30;102145.56;;;13.23;100.00
9421;BME280;4749;51.398;5.466;2023-05-29T04:33:58;102146.56;;;13.35;100.00
9421;BME280;4749;51.398;5.466;2023-05-29T04:36:28;102145.84;;;13.46;100.00
9421;BME280;4749;51.398;5.466;2023-05-29T04:38:55;102140.66;;;13.56;100.00
9421;BME280;4749;51.398;5.466;2023-05-29T04:41:22;102142.44;;;13.58;100.00
9421;BME280;4749;51.398;5.466;2023-05-29T04:43:50;102146.06;;;13.65;100.00
9421;BME280;4749;51.398;5.466;2023-05-29T04:46:23;102151.44;;;13.74;100.00
9421;BME280;4749;51.398;5.466;2023-05-29T04:48:51;102146.22;;;13.80;100.00
9421;BME280;4749;51.398;5.466;2023-05-29T04:51:22;102153.31;;;13.86;100.00
9421;BME280;4749;51.398;5.466;2023-05-29T04:53:51;102152.50;;;13.94;100.00
9421;BME280;4749;51.398;5.466;2023-05-29T04:56:20;102154.34;;;14.01;100.00
9421;BME280;4749;51.398;5.466;2023-05-29T04:58:48;102151.75;;;14.07;100.00
9421;BME280;4749;51.398;5.466;2023-05-29T05:01:16;102162.41;;;14.14;100.00
9421;BME280;4749;51.398;5.466;2023-05-29T05:03:44;102158.00;;;14.14;100.00
9421;BME280;4749;51.398;5.466;2023-05-29T05:06:12;102158.00;;;14.16;100.00
9421;BME280;4749;51.398;5.466;2023-05-29T05:08:39;102159.78;;;14.20;100.00
9421;BME280;4749;51.398;5.466;2023-05-29T05:11:06;102160.72;;;14.28;100.00
9421;BME280;4749;51.398;5.466;2023-05-29T05:13:33;102158.16;;;14.35;100.00
9421;BME280;4749;51.398;5.466;2023-05-29T05:16:01;102166.16;;;14.43;100.00
9421;BME280;4749;51.398;5.466;2023-05-29T05:18:28;102168.81;;;14.45;100.00
9421;BME280;4749;51.398;5.466;2023-05-29T05:20:55;102174.19;;;14.48;100.00
9421;BME280;4749;51.398;5.466;2023-05-29T05:23:23;102158.28;;;14.46;100.00
9421;BME280;4749;51.398;5.466;2023-05-29T05:25:50;102171.53;;;14.51;100.00
9421;BME280;4749;51.398;5.466;2023-05-29T05:28:17;102173.34;;;14.56;100.00
9421;BME280;4749;51.398;5.466;2023-05-29T05:30:44;102169.84;;;14.62;100.00
9421;BME280;4749;51.398;5.466;2023-05-29T05:33:11;102178.72;;;14.66;100.00
9421;BME280;4749;51.398;5.466;2023-05-29T05:35:38;102175.19;;;14.71;100.00
9421;BME280;4749;51.398;5.466;2023-05-29T05:38:05;102176.19;;;14.81;100.00
9421;BME280;4749;51.398;5.466;2023-05-29T05:40:33;102178.00;;;14.91;100.00
9421;BME280;4749;51.398;5.466;2023-05-29T05:43:00;102180.69;;;15.02;100.00
9421;BME280;4749;51.398;5.466;2023-05-29T05:45:27;102186.03;;;15.11;100.00
9421;BME280;4749;51.398;5.466;2023-05-29T05:47:56;102197.56;;;15.17;100.00
9421;BME280;4749;51.398;5.466;2023-05-29T05:50:23;102194.91;;;15.17;100.00
9421;BME280;4749;51.398;5.466;2023-05-29T05:52:51;102194.03;;;15.21;100.00
9421;BME280;4749;51.398;5.466;2023-05-29T05:55:18;102187.00;;;15.25;100.00
9421;BME280;4749;51.398;5.466;2023-05-29T05:57:45;102188.78;;;15.29;100.00
9421;BME280;4749;51.398;5.466;2023-05-29T06:00:13;102192.34;;;15.36;100.00
9421;BME280;4749;51.398;5.466;2023-05-29T06:02:40;102183.53;;;15.43;100.00
9421;BME280;4749;51.398;5.466;2023-05-29T06:05:10;102186.22;;;15.54;100.00
9421;BME280;4749;51.398;5.466;2023-05-29T06:07:38;102187.16;;;15.63;100.00
9421;BME280;4749;51.398;5.466;2023-05-29T06:10:06;102191.63;;;15.70;100.00
9421;BME280;4749;51.398;5.466;2023-05-29T06:12:34;102189.88;;;15.75;100.00
9421;BME280;4749;51.398;5.466;2023-05-29T06:15:02;102194.31;;;15.83;100.00
9421;BME280;4749;51.398;5.466;2023-05-29T06:17:30;102198.75;;;15.93;100.00
9421;BME280;4749;51.398;5.466;2023-05-29T06:19:58;102206.72;;;16.05;100.00
9421;BME280;4749;51.398;5.466;2023-05-29T06:22:26;102204.06;;;16.13;100.00
9421;BME280;4749;51.398;5.466;2023-05-29T06:24:53;102207.63;;;16.19;100.00
9421;BME280;4749;51.398;5.466;2023-05-29T06:27:20;102218.25;;;16.30;100.00
9421;BME280;4749;51.398;5.466;2023-05-29T06:29:50;102220.03;;;16.42;100.00
9421;BME280;4749;51.398;5.466;2023-05-29T06:32:17;102226.22;;;16.51;100.00
9421;BME280;4749;51.398;5.466;2023-05-29T06:34:44;102228.00;;;16.58;100.00
9421;BME280;4749;51.398;5.466;2023-05-29T06:37:11;102219.13;;;16.63;100.00
9421;BME280;4749;51.398;5.466;2023-05-29T06:39:38;102212.06;;;16.65;100.00
9421;BME280;4749;51.398;5.466;2023-05-29T06:42:08;102234.22;;;16.73;100.00
9421;BME280;4749;51.398;5.466;2023-05-29T06:44:36;102236.00;;;16.78;100.00
9421;BME280;4749;51.398;5.466;2023-05-29T06:47:04;102235.09;;;16.84;100.00
9421;BME280;4749;51.398;5.466;2023-05-29T06:49:31;102235.09;;;16.95;100.00
9421;BME280;4749;51.398;5.466;2023-05-29T06:51:58;102234.19;;;17.03;100.00
9421;BME280;4749;51.398;5.466;2023-05-29T06:54:26;102231.47;;;17.20;100.00
9421;BME280;4749;51.398;5.466;2023-05-29T06:56:53;102239.44;;;17.32;100.00
9421;BME280;4749;51.398;5.466;2023-05-29T06:59:38;102238.53;;;17.41;100.00
9421;BME280;4749;51.398;5.466;2023-05-29T07:02:06;102231.41;;;17.44;100.00
9421;BME280;4749;51.398;5.466;2023-05-29T07:04:33;102233.22;;;17.41;100.00
9421;BME280;4749;51.398;5.466;2023-05-29T07:07:01;102235.84;;;17.44;100.00
9421;BME280;4749;51.398;5.466;2023-05-29T07:09:28;102225.22;;;17.44;100.00
9421;BME280;4749;51.398;5.466;2023-05-29T07:11:55;102239.31;;;17.55;100.00
9421;BME280;4749;51.398;5.466;2023-05-29T07:14:22;102229.59;;;17.54;100.00
9421;BME280;4749;51.398;5.466;2023-05-29T07:16:50;102237.56;;;17.53;100.00
9421;BME280;4749;51.398;5.466;2023-05-29T07:19:17;102235.81;;;17.45;100.00
9421;BME280;4749;51.398;5.466;2023-05-29T07:21:48;102236.75;;;17.41;100.00
9421;BME280;4749;51.398;5.466;2023-05-29T07:24:15;102240.25;;;17.45;100.00
9421;BME280;4749;51.398;5.466;2023-05-29T07:26:42;102230.47;;;17.49;100.00
9421;BME280;4749;51.398;5.466;2023-05-29T07:29:10;102229.59;;;17.54;100.00
9421;BME280;4749;51.398;5.466;2023-05-29T07:31:38;102238.44;;;17.59;100.00
9421;BME280;4749;51.398;5.466;2023-05-29T07:34:07;102240.22;;;17.57;100.00
9421;BME280;4749;51.398;5.466;2023-05-29T07:36:34;102241.97;;;17.66;99.82
9421;BME280;4749;51.398;5.466;2023-05-29T07:39:03;102245.50;;;17.68;98.04
9421;BME280;4749;51.398;5.466;2023-05-29T07:41:32;102243.72;;;17.64;95.82
9421;BME280;4749;51.398;5.466;2023-05-29T07:43:59;102246.41;;;17.62;95.45
9421;BME280;4749;51.398;5.466;2023-05-29T07:46:26;102246.41;;;17.70;95.70
9421;BME280;4749;51.398;5.466;2023-05-29T07:48:54;102252.56;;;17.83;95.19
9421;BME280;4749;51.398;5.466;2023-05-29T07:51:21;102251.63;;;17.93;94.29
9421;BME280;4749;51.398;5.466;2023-05-29T07:53:49;102257.78;;;18.01;93.55
9421;BME280;4749;51.398;5.466;2023-05-29T07:56:16;102249.72;;;18.12;92.50
9421;BME280;4749;51.398;5.466;2023-05-29T07:58:44;102254.13;;;18.19;92.19
9421;BME280;4749;51.398;5.466;2023-05-29T08:01:11;102251.41;;;18.25;89.31
9421;BME280;4749;51.398;5.466;2023-05-29T08:03:41;102255.81;;;18.29;87.84
9421;BME280;4749;51.398;5.466;2023-05-29T08:06:08;102258.41;;;18.38;87.17
9421;BME280;4749;51.398;5.466;2023-05-29T08:08:36;102262.84;;;18.42;86.23
9421;BME280;4749;51.398;5.466;2023-05-29T08:11:03;102258.38;;;18.41;86.18
9421;BME280;4749;51.398;5.466;2023-05-29T08:13:30;102259.25;;;18.45;85.17
9421;BME280;4749;51.398;5.466;2023-05-29T08:15:57;102253.88;;;18.51;84.37
9421;BME280;4749;51.398;5.466;2023-05-29T08:18:26;102251.16;;;18.60;84.89
9421;BME280;4749;51.398;5.466;2023-05-29T08:20:53;102256.38;;;18.74;84.49
9421;BME280;4749;51.398;5.466;2023-05-29T08:23:21;102261.63;;;18.84;83.42
9421;BME280;4749;51.398;5.466;2023-05-29T08:25:48;102259.75;;;18.94;82.92
9421;BME280;4749;51.398;5.466;2023-05-29T08:28:15;102256.13;;;19.01;82.20
9421;BME280;4749;51.398;5.466;2023-05-29T08:30:42;102259.63;;;19.05;81.57
9421;BME280;4749;51.398;5.466;2023-05-29T08:33:10;102259.56;;;19.12;81.33
9421;BME280;4749;51.398;5.466;2023-05-29T08:35:37;102262.09;;;19.23;80.74
9421;BME280;4749;51.398;5.466;2023-05-29T08:38:04;102266.44;;;19.33;79.95
9421;BME280;4749;51.398;5.466;2023-05-29T08:40:31;102265.41;;;19.47;79.20
9421;BME280;4749;51.398;5.466;2023-05-29T08:46:04;102278.47;;;19.71;77.03
9421;BME280;4749;51.398;5.466;2023-05-29T08:48:31;102278.34;;;19.82;75.90
9421;BME280;4749;51.398;5.466;2023-05-29T08:51:02;102287.22;;;19.82;74.75
9421;BME280;4749;51.398;5.466;2023-05-29T08:53:31;102269.44;;;19.84;74.26
9421;BME280;4749;51.398;5.466;2023-05-29T08:56:00;102271.94;;;19.95;73.71
9421;BME280;4749;51.398;5.466;2023-05-29T08:58:28;102275.38;;;20.05;73.33
9421;BME280;4749;51.398;5.466;2023-05-29T09:00:55;102278.88;;;20.07;72.47
9421;BME280;4749;51.398;5.466;2023-05-29T09:03:23;102267.28;;;20.09;71.72
9421;BME280;4749;51.398;5.466;2023-05-29T09:05:50;102277.84;;;20.18;71.79
9421;BME280;4749;51.398;5.466;2023-05-29T09:08:18;102288.31;;;20.32;71.37
9421;BME280;4749;51.398;5.466;2023-05-29T09:10:45;102283.75;;;20.39;70.83
9421;BME280;4749;51.398;5.466;2023-05-29T09:13:13;102284.72;;;20.33;70.23
9421;BME280;4749;51.398;5.466;2023-05-29T09:15:41;102299.91;;;20.31;69.70
9421;BME280;4749;51.398;5.466;2023-05-29T09:18:12;102287.47;;;20.29;69.08
9421;BME280;4749;51.398;5.466;2023-05-29T09:20:40;102291.06;;;20.28;68.89
9421;BME280;4749;51.398;5.466;2023-05-29T09:23:09;102278.47;;;20.36;68.85
9421;BME280;4749;51.398;5.466;2023-05-29T09:25:41;102281.09;;;20.39;68.14
9421;BME280;4749;51.398;5.466;2023-05-29T09:28:11;102280.16;;;20.41;68.10
9421;BME280;4749;51.398;5.466;2023-05-29T09:30:43;102283.59;;;20.52;67.94
9421;BME280;4749;51.398;5.466;2023-05-29T09:33:13;102290.53;;;20.63;67.32
9421;BME280;4749;51.398;5.466;2023-05-29T09:35:45;102282.50;;;20.64;67.08
9421;BME280;4749;51.398;5.466;2023-05-29T09:38:18;102283.31;;;20.69;66.48
9421;BME280;4749;51.398;5.466;2023-05-29T09:41:05;102281.25;;;20.87;66.73
9421;BME280;4749;51.398;5.466;2023-05-29T09:43:33;102282.75;;;21.00;65.71
9421;BME280;4749;51.398;5.466;2023-05-29T09:46:01;102275.59;;;21.02;65.75
9421;BME280;4749;51.398;5.466;2023-05-29T09:48:30;102278.09;;;21.13;66.08
9421;BME280;4749;51.398;5.466;2023-05-29T09:50:58;102275.16;;;21.28;65.82
9421;BME280;4749;51.398;5.466;2023-05-29T09:53:28;102282.06;;;21.40;65.98
9421;BME280;4749;51.398;5.466;2023-05-29T09:55:57;102279.13;;;21.52;65.81
9421;BME280;4749;51.398;5.466;2023-05-29T09:58:26;102270.03;;;21.62;65.50
9421;BME280;4749;51.398;5.466;2023-05-29T10:00:55;102283.13;;;21.74;65.32
9421;BME280;4749;51.398;5.466;2023-05-29T10:03:25;102287.31;;;21.87;64.58
9421;BME280;4749;51.398;5.466;2023-05-29T10:05:54;102275.69;;;21.88;63.56
9421;BME280;4749;51.398;5.466;2023-05-29T10:08:26;102276.53;;;21.90;63.45
9421;BME280;4749;51.398;5.466;2023-05-29T10:11:01;102283.66;;;21.91;62.83
9421;BME280;4749;51.398;5.466;2023-05-29T10:13:39;102269.34;;;21.92;62.02
9421;BME280;4749;51.398;5.466;2023-05-29T10:16:11;102264.88;;;21.95;62.72
9421;BME280;4749;51.398;5.466;2023-05-29T10:18:53;102255.66;;;22.08;62.89
9421;BME280;4749;51.398;5.466;2023-05-29T10:21:22;102260.63;;;22.25;62.39
9421;BME280;4749;51.398;5.466;2023-05-29T10:23:51;102266.63;;;22.34;61.89
9421;BME280;4749;51.398;5.466;2023-05-29T10:26:25;102269.06;;;22.45;61.80
9421;BME280;4749;51.398;5.466;2023-05-29T10:32:48;102261.94;;;22.80;61.10
9421;BME280;4749;51.398;5.466;2023-05-29T10:35:20;102259.97;;;22.88;61.10
9421;BME280;4749;51.398;5.466;2023-05-29T10:38:17;102258.84;;;22.96;61.14
9421;BME280;4749;51.398;5.466;2023-05-29T10:40:45;102264.81;;;23.08;61.20
9421;BME280;4749;51.398;5.466;2023-05-29T10:43:33;102262.63;;;23.22;60.83
9421;BME280;4749;51.398;5.466;2023-05-29T10:46:01;102257.16;;;23.25;60.57
9421;BME280;4749;51.398;5.466;2023-05-29T10:48:36;102261.50;;;23.30;59.92
9421;BME280;4749;51.398;5.466;2023-05-29T10:51:06;102258.72;;;23.34;60.04
9421;BME280;4749;51.398;5.466;2023-05-29T10:53:35;102252.34;;;23.38;59.42
9421;BME280;4749;51.398;5.466;2023-05-29T10:56:16;102250.28;;;23.47;59.37
9421;BME280;4749;51.398;5.466;2023-05-29T10:58:53;102251.00;;;23.52;58.62
9421;BME280;4749;51.398;5.466;2023-05-29T11:01:24;102266.03;;;23.59;58.56
9421;BME280;4749;51.398;5.466;2023-05-29T11:04:36;102256.66;;;23.74;58.14
9421;BME280;4749;51.398;5.466;2023-05-29T11:07:03;102255.34;;;23.87;58.50
9421;BME280;4749;51.398;5.466;2023-05-29T11:09:37;102248.56;;;24.05;58.52
9421;BME280;4749;51.398;5.466;2023-05-29T11:15:02;102251.38;;;24.29;57.34
9421;BME280;4749;51.398;5.466;2023-05-29T11:20:02;102239.53;;;24.36;56.82
9421;BME280;4749;51.398;5.466;2023-05-29T11:25:27;102237.38;;;24.74;57.09
9421;BME280;4749;51.398;5.466;2023-05-29T11:27:54;102231.81;;;24.78;56.14
9421;BME280;4749;51.398;5.466;2023-05-29T11:30:22;102234.56;;;24.77;56.06
9421;BME280;4749;51.398;5.466;2023-05-29T11:32:50;102240.81;;;24.77;55.64
9421;BME280;4749;51.398;5.466;2023-05-29T11:35:22;102238.94;;;24.79;54.95
9421;BME280;4749;51.398;5.466;2023-05-29T11:37:49;102238.94;;;24.79;54.60
9421;BME280;4749;51.398;5.466;2023-05-29T11:40:17;102230.78;;;24.82;54.33
9421;BME280;4749;51.398;5.466;2023-05-29T11:42:46;102239.69;;;24.84;54.26
9421;BME280;4749;51.398;5.466;2023-05-29T11:45:20;102236.38;;;24.76;54.01
9421;BME280;4749;51.398;5.466;2023-05-29T11:48:01;102233.69;;;24.76;54.21
9421;BME280;4749;51.398;5.466;2023-05-29T11:50:33;102238.06;;;24.79;53.99
9421;BME280;4749;51.398;5.466;2023-05-29T11:53:06;102231.75;;;24.80;53.93
9421;BME280;4749;51.398;5.466;2023-05-29T11:55:34;102239.56;;;24.87;54.31
9421;BME280;4749;51.398;5.466;2023-05-29T11:58:03;102229.34;;;24.97;53.67
9421;BME280;4749;51.398;5.466;2023-05-29T12:00:40;102234.41;;;25.08;53.80
9421;BME280;4749;51.398;5.466;2023-05-29T12:03:07;102228.63;;;25.18;53.45
9421;BME280;4749;51.398;5.466;2023-05-29T12:05:49;102233.72;;;25.26;53.26
9421;BME280;4749;51.398;5.466;2023-05-29T12:08:23;102232.63;;;25.32;53.23
9421;BME280;4749;51.398;5.466;2023-05-29T12:10:52;102231.50;;;25.37;52.61
9421;BME280;4749;51.398;5.466;2023-05-29T12:13:20;102226.66;;;25.47;52.50
9421;BME280;4749;51.398;5.466;2023-05-29T12:15:49;102242.50;;;25.54;52.18
9421;BME280;4749;51.398;5.466;2023-05-29T12:18:20;102232.25;;;25.64;52.04
9421;BME280;4749;51.398;5.466;2023-05-29T12:20:47;102234.72;;;25.70;51.64
9421;BME280;4749;51.398;5.466;2023-05-29T12:23:14;102234.72;;;25.70;51.39
9421;BME280;4749;51.398;5.466;2023-05-29T12:25:47;102232.84;;;25.74;51.30
9421;BME280;4749;51.398;5.466;2023-05-29T12:28:18;102235.09;;;25.85;51.55
9421;BME280;4749;51.398;5.466;2023-05-29T12:30:48;102233.22;;;25.87;51.23
9421;BME280;4749;51.398;5.466;2023-05-29T12:33:30;102230.47;;;25.88;51.02
9421;BME280;4749;51.398;5.466;2023-05-29T12:36:07;102228.25;;;25.99;51.32
9421;BME280;4749;51.398;5.466;2023-05-29T12:38:50;102224.88;;;26.16;51.35
9421;BME280;4749;51.398;5.466;2023-05-29T12:41:34;102211.56;;;26.33;50.73
9421;BME280;4749;51.398;5.466;2023-05-29T12:44:05;102223.75;;;26.44;50.97
9421;BME280;4749;51.398;5.466;2023-05-29T12:46:43;102217.50;;;26.63;51.06
9421;BME280;4749;51.398;5.466;2023-05-29T12:49:18;102232.16;;;26.78;50.53
9421;BME280;4749;51.398;5.466;2023-05-29T12:51:48;102226.69;;;26.80;50.68
9421;BME280;4749;51.398;5.466;2023-05-29T12:54:16;102221.63;;;26.92;50.88
9421;BME280;4749;51.398;5.466;2023-05-29T12:56:44;102221.91;;;27.07;50.77
9421;BME280;4749;51.398;5.466;2023-05-29T12:59:13;102233.25;;;27.15;49.88
9421;BME280;4749;51.398;5.466;2023-05-29T13:01:41;102226.09;;;27.14;49.74
9421;BME280;4749;51.398;5.466;2023-05-29T13:04:09;102231.97;;;27.03;49.37
9421;BME280;4749;51.398;5.466;2023-05-29T13:06:39;102218.94;;;26.92;49.33
9421;BME280;4749;51.398;5.466;2023-05-29T13:09:06;102212.94;;;26.86;49.66
9421;BME280;4749;51.398;5.466;2023-05-29T13:11:35;102224.59;;;26.86;49.52
9421;BME280;4749;51.398;5.466;2023-05-29T13:14:04;102219.19;;;26.86;48.85
9421;BME280;4749;51.398;5.466;2023-05-29T13:16:31;102229.25;;;26.83;49.08
9421;BME280;4749;51.398;5.466;2023-05-29T13:18:59;102222.84;;;26.85;48.53
9421;BME280;4749;51.398;5.466;2023-05-29T13:21:26;102231.75;;;26.87;48.59
9421;BME280;4749;51.398;5.466;2023-05-29T13:23:53;102230.69;;;26.91;47.91
9421;BME280;4749;51.398;5.466;2023-05-29T13:26:21;102233.22;;;26.94;47.88
9421;BME280;4749;51.398;5.466;2023-05-29T13:28:49;102222.78;;;26.87;47.75
9421;BME280;4749;51.398;5.466;2023-05-29T13:31:17;102222.84;;;26.85;47.89
9421;BME280;4749;51.398;5.466;2023-05-29T13:33:44;102226.00;;;26.95;47.98
9421;BME280;4749;51.398;5.466;2023-05-29T13:36:12;102231.22;;;27.00;47.42